Pays
Station

 

Conditions  météo  pour  Torino/Caselle  -  Italie    Italie

  
26 °C
    
 
 

METAR pour Torino/Caselle :

LIMF 180920Z 09005KT 040V150 CAVOK 26/16 Q1017

 

Voici le bulletin pour Torino/Caselle - Italie.
 
Le bulletin a été fait il y a 9 minutes, à 09:20 UTC .
Le vent soufflait à la vitesse de 2.6 mètres par seconde de Est (090°), variant entre Nord-est (040°) et Sud/Sud-est (150°).
 
La température était de 26 °C, avec un point de rosée à 16 °C.
La température ressentie était de 27 °C.
 
La pression atmosphérique était de 1017 hPa.
L'humidité relative était de 54.1%.
 
Il y avait pas de nuages en-dessous de 1500 mètres et pas de cumulonimbus.
 
La visibilité globale était de supérieure à 10 kilomètres.
 

 
 
 

Pays :   A   B   C   D   E   F   G   H   I   J   K   L   M   N   O   P   Q   R   S   T   U   V   W   Y   Z

 

Partenaires :  Info Météo avec Met'info
Météo Marine avec MeteoMarine.net
Infos Site  |  Infos Légales  |  Crédits  |  Confidentialité
Contactez-nous  |  Ajouter aux favoris
© 2013-2019 METAR - Tous droits réservés